createdAt,value
2023-02-21T00:02:10.566Z,97226.59
2023-02-21T00:04:55.777Z,97215.16
2023-02-21T00:07:41.068Z,97209.91
2023-02-21T00:10:27.442Z,97204.66
2023-02-21T00:13:12.647Z,97217.91
2023-02-21T00:15:57.826Z,97205.06
2023-02-21T00:18:43.085Z,97191.00
2023-02-21T00:21:28.237Z,97207.03
2023-02-21T00:24:13.384Z,97199.00
2023-02-21T00:26:58.640Z,97211.00
2023-02-21T00:29:43.582Z,97178.13
2023-02-21T00:32:28.692Z,97204.63
2023-02-21T00:35:13.967Z,97193.22
2023-02-21T00:37:59.064Z,97198.25
2023-02-21T00:40:44.404Z,97196.66
2023-02-21T00:43:29.430Z,97207.66
2023-02-21T00:46:14.699Z,97196.63
2023-02-21T00:49:00.002Z,97201.81
2023-02-21T00:51:46.034Z,97199.97
2023-02-21T00:54:31.183Z,97186.97
2023-02-21T00:57:16.258Z,97183.38
2023-02-21T01:00:02.017Z,97178.72
2023-02-21T01:02:47.134Z,97174.94
2023-02-21T01:05:32.369Z,97177.75
2023-02-21T01:08:17.771Z,97169.72
2023-02-21T01:11:02.938Z,97161.31
2023-02-21T01:13:48.108Z,97165.09
2023-02-21T01:16:33.273Z,97160.66
2023-02-21T01:19:18.529Z,97151.25
2023-02-21T01:22:03.445Z,97166.28
2023-02-21T01:24:48.723Z,97157.25
2023-02-21T01:27:33.956Z,97156.22
2023-02-21T01:30:19.138Z,97150.56
2023-02-21T01:33:04.752Z,97166.72
2023-02-21T01:35:49.925Z,97157.25
2023-02-21T01:38:35.051Z,97141.59
2023-02-21T01:41:20.449Z,97142.91
2023-02-21T01:44:47.816Z,97140.13
2023-02-21T01:47:32.871Z,97142.31
2023-02-21T01:50:20.625Z,97142.88
2023-02-21T01:53:08.177Z,97145.81
2023-02-21T01:55:57.989Z,97148.03
2023-02-21T01:58:45.660Z,97136.34
2023-02-21T02:01:39.380Z,97143.66
2023-02-21T02:04:24.648Z,97143.66
2023-02-21T02:07:09.917Z,97132.88
2023-02-21T02:09:55.050Z,97130.81
2023-02-21T02:12:55.092Z,97145.00
2023-02-21T02:15:38.568Z,97138.41
2023-02-21T02:18:33.095Z,97144.84
2023-02-21T02:21:28.688Z,97146.19
2023-02-21T02:24:30.085Z,97151.94
2023-02-21T02:27:21.194Z,97144.94
2023-02-21T02:30:33.136Z,97150.66
2023-02-21T02:33:27.614Z,97155.19
2023-02-21T02:36:07.362Z,97149.41
2023-02-21T02:38:51.980Z,97130.09
2023-02-21T02:41:34.979Z,97148.16
2023-02-21T02:44:19.704Z,97147.16
2023-02-21T02:46:48.989Z,97131.41
2023-02-21T02:49:25.515Z,97149.53
2023-02-21T02:51:52.571Z,97139.22
2023-02-21T02:54:22.182Z,97150.78
2023-02-21T02:56:48.779Z,97152.41
2023-02-21T02:59:29.905Z,97121.28
2023-02-21T03:02:15.525Z,97152.31
2023-02-21T03:05:01.355Z,97139.28
2023-02-21T03:07:43.697Z,97144.34
2023-02-21T03:10:32.192Z,97148.31
2023-02-21T03:13:07.044Z,97144.28
2023-02-21T03:15:41.660Z,97142.88
2023-02-21T03:18:17.903Z,97159.22
2023-02-21T03:20:50.253Z,97158.97
2023-02-21T03:23:19.459Z,97155.31
2023-02-21T03:25:48.168Z,97144.59
2023-02-21T03:28:16.254Z,97151.88
2023-02-21T03:30:45.883Z,97150.97
2023-02-21T03:33:12.739Z,97143.50
2023-02-21T03:35:39.704Z,97161.34
2023-02-21T03:38:06.344Z,97154.75
2023-02-21T03:40:34.461Z,97155.28
2023-02-21T03:43:08.477Z,97153.06
2023-02-21T03:45:44.688Z,97160.59
2023-02-21T03:48:20.170Z,97153.97
2023-02-21T03:50:53.277Z,97156.13
2023-02-21T03:53:20.637Z,97143.31
2023-02-21T03:55:47.490Z,97150.94
2023-02-21T03:58:20.245Z,97143.59
2023-02-21T04:00:47.311Z,97145.59
2023-02-21T04:03:17.632Z,97131.09
2023-02-21T04:05:50.963Z,97120.63
2023-02-21T04:08:17.938Z,97152.31
2023-02-21T04:10:52.161Z,97150.47
2023-02-21T04:13:20.967Z,97131.34
2023-02-21T04:15:48.343Z,97140.84
2023-02-21T04:18:14.869Z,97121.53
2023-02-21T04:20:41.965Z,97133.94
2023-02-21T04:23:12.722Z,97134.03
2023-02-21T04:25:39.342Z,97142.63
2023-02-21T04:28:12.467Z,97143.34
2023-02-21T04:30:39.065Z,97151.22
2023-02-21T04:33:05.794Z,97136.72
2023-02-21T04:35:32.766Z,97149.06
2023-02-21T04:38:03.509Z,97160.06
2023-02-21T04:40:30.057Z,97142.19
2023-02-21T04:42:56.650Z,97153.81
2023-02-21T04:45:23.312Z,97154.16
2023-02-21T04:47:49.904Z,97156.94
2023-02-21T04:50:18.231Z,97136.28
2023-02-21T04:52:44.882Z,97140.38
2023-02-21T04:55:11.361Z,97140.91
2023-02-21T04:57:38.004Z,97145.91
2023-02-21T05:00:07.619Z,97148.78
2023-02-21T05:02:34.667Z,97152.34
2023-02-21T05:05:01.299Z,97161.91
2023-02-21T05:07:27.966Z,97155.28
2023-02-21T05:09:54.602Z,97146.88
2023-02-21T05:12:21.604Z,97150.66
2023-02-21T05:14:50.215Z,97149.66
2023-02-21T05:17:17.153Z,97126.47
2023-02-21T05:19:43.740Z,97129.41
2023-02-21T05:22:10.585Z,97139.28
2023-02-21T05:24:42.636Z,97139.63
2023-02-21T05:27:15.764Z,97145.78
2023-02-21T05:29:46.193Z,97135.59
2023-02-21T05:32:12.835Z,97122.72
2023-02-21T05:34:41.425Z,97121.44
2023-02-21T05:37:08.017Z,97112.47
2023-02-21T05:39:34.621Z,97139.22
2023-02-21T05:42:01.119Z,97147.81
2023-02-21T05:44:27.803Z,97138.25
2023-02-21T05:46:54.421Z,97146.81
2023-02-21T05:49:20.975Z,97143.59
2023-02-21T05:51:47.491Z,97151.38
2023-02-21T05:54:17.769Z,97147.34
2023-02-21T05:56:45.680Z,97144.59
2023-02-21T05:59:13.038Z,97138.41
2023-02-21T06:01:39.931Z,97141.00
2023-02-21T06:04:07.629Z,97134.59
2023-02-21T06:06:34.934Z,97112.03
2023-02-21T06:09:01.441Z,97128.72
2023-02-21T06:11:31.872Z,97128.78
2023-02-21T06:14:00.070Z,97132.06
2023-02-21T06:16:28.768Z,97124.19
2023-02-21T06:18:56.964Z,97122.06
2023-02-21T06:21:23.478Z,97133.25
2023-02-21T06:23:49.844Z,97154.50
2023-02-21T06:26:17.529Z,97151.50
2023-02-21T06:28:44.057Z,97129.50
2023-02-21T06:31:10.823Z,97128.28
2023-02-21T06:33:37.395Z,97147.13
2023-02-21T06:36:10.832Z,97136.09
2023-02-21T06:38:37.707Z,97144.53
2023-02-21T06:41:08.754Z,97152.38
2023-02-21T06:43:38.741Z,97143.38
2023-02-21T06:46:05.545Z,97167.50
2023-02-21T06:48:32.373Z,97167.94
2023-02-21T06:50:59.217Z,97167.16
2023-02-21T06:53:25.772Z,97165.56
2023-02-21T06:55:53.054Z,97150.94
2023-02-21T06:58:19.527Z,97157.78
2023-02-21T07:00:46.022Z,97139.72
2023-02-21T07:03:12.463Z,97149.06
2023-02-21T07:05:39.094Z,97156.66
2023-02-21T07:08:05.617Z,97141.16
2023-02-21T07:10:32.108Z,97148.44
2023-02-21T07:12:58.590Z,97123.56
2023-02-21T07:15:25.433Z,97134.03
2023-02-21T07:17:51.924Z,97154.09
2023-02-21T07:20:18.535Z,97167.41
2023-02-21T07:22:45.023Z,97155.69
2023-02-21T07:25:17.103Z,97152.72
2023-02-21T07:27:43.617Z,97149.31
2023-02-21T07:30:11.986Z,97161.66
2023-02-21T07:32:38.482Z,97146.81
2023-02-21T07:35:05.058Z,97161.09
2023-02-21T07:37:31.716Z,97159.41
2023-02-21T07:39:58.298Z,97144.09
2023-02-21T07:42:25.034Z,97166.34
2023-02-21T07:44:57.258Z,97172.53
2023-02-21T07:47:25.282Z,97174.66
2023-02-21T07:49:54.009Z,97150.91
2023-02-21T07:52:22.412Z,97153.09
2023-02-21T07:54:49.061Z,97136.13
2023-02-21T07:57:16.972Z,97180.44
2023-02-21T07:59:43.863Z,97179.13
2023-02-21T08:02:12.230Z,97178.63
2023-02-21T08:04:39.119Z,97170.19
2023-02-21T08:07:06.114Z,97187.97
2023-02-21T08:09:33.309Z,97170.28
2023-02-21T08:12:00.220Z,97179.22
2023-02-21T08:14:26.917Z,97176.59
2023-02-21T08:16:53.555Z,97164.66
2023-02-21T08:19:20.219Z,97168.25
2023-02-21T08:21:48.794Z,97172.22
2023-02-21T08:24:16.146Z,97181.56
2023-02-21T08:26:45.376Z,97186.03
2023-02-21T08:29:13.993Z,97167.06
2023-02-21T08:31:41.937Z,97194.88
2023-02-21T08:34:09.199Z,97196.91
2023-02-21T08:36:38.786Z,97129.31
2023-02-21T08:39:06.396Z,97184.81
2023-02-21T08:41:36.832Z,97175.44
2023-02-21T08:44:03.311Z,97174.81
2023-02-21T08:46:29.713Z,97189.63
2023-02-21T08:48:56.195Z,97161.72
2023-02-21T08:51:26.340Z,97193.38
2023-02-21T08:53:52.899Z,97175.13
2023-02-21T08:56:22.817Z,97199.91
2023-02-21T08:58:49.455Z,97187.44
2023-02-21T09:01:17.274Z,97199.34
2023-02-21T09:03:43.981Z,97184.38
2023-02-21T09:06:10.446Z,97189.72
2023-02-21T09:08:37.833Z,97187.13
2023-02-21T09:11:04.731Z,97176.94
2023-02-21T09:13:32.901Z,97166.88
2023-02-21T09:16:01.224Z,97182.31
2023-02-21T09:18:28.631Z,97184.38
2023-02-21T09:20:57.408Z,97166.69
2023-02-21T09:23:25.797Z,97197.03
2023-02-21T09:25:52.778Z,97197.41
2023-02-21T09:28:19.921Z,97188.06
2023-02-21T09:30:47.772Z,97193.66
2023-02-21T09:33:15.437Z,97195.41
2023-02-21T09:35:42.047Z,97187.53
2023-02-21T09:38:09.329Z,97170.66
2023-02-21T09:40:38.798Z,97198.38
2023-02-21T09:43:11.736Z,97194.47
2023-02-21T09:45:38.711Z,97157.44
2023-02-21T09:48:13.614Z,97170.13
2023-02-21T09:50:44.428Z,97176.88
2023-02-21T09:53:14.794Z,97185.47
2023-02-21T09:55:42.171Z,97164.31
2023-02-21T09:58:18.926Z,97165.03
2023-02-21T10:00:46.825Z,97172.94
2023-02-21T10:03:35.505Z,97185.16
2023-02-21T10:06:24.992Z,97182.75
2023-02-21T10:09:26.766Z,97162.34
2023-02-21T10:12:10.365Z,97188.00
2023-02-21T10:14:53.956Z,97186.88
2023-02-21T10:17:29.148Z,97179.06
2023-02-21T10:20:04.234Z,97157.47
2023-02-21T10:22:37.706Z,97182.13
2023-02-21T10:25:30.659Z,97156.84
2023-02-21T10:27:59.061Z,97165.03
2023-02-21T10:30:38.025Z,97169.09
2023-02-21T10:33:06.334Z,97160.31
2023-02-21T10:35:34.013Z,97168.44
2023-02-21T10:38:03.059Z,97143.47
2023-02-21T10:40:39.830Z,97158.88
2023-02-21T10:43:27.855Z,97170.31
2023-02-21T10:45:57.268Z,97170.56
2023-02-21T10:48:29.186Z,97137.94
2023-02-21T10:51:04.721Z,97173.13
2023-02-21T10:53:42.512Z,97172.94
2023-02-21T10:56:15.244Z,97175.09
2023-02-21T10:58:47.998Z,97164.00
2023-02-21T11:01:18.454Z,97116.88
2023-02-21T11:03:49.701Z,97133.03
2023-02-21T11:06:38.132Z,97172.56
2023-02-21T11:09:31.706Z,97159.75
2023-02-21T11:12:19.878Z,97153.97
2023-02-21T11:14:52.635Z,97143.38
2023-02-21T11:32:35.107Z,97123.63
2023-02-21T11:35:07.203Z,97117.75
2023-02-21T11:37:34.936Z,97120.72
2023-02-21T11:40:02.694Z,97110.22
2023-02-21T11:42:34.399Z,97105.31
2023-02-21T11:45:13.859Z,97098.16
2023-02-21T11:47:50.803Z,97097.81
2023-02-21T11:50:20.163Z,97098.81
2023-02-21T11:53:15.050Z,97095.72
2023-02-21T11:55:48.090Z,97090.97
2023-02-21T11:58:26.780Z,97077.09
2023-02-21T12:01:06.844Z,97073.75
2023-02-21T12:03:51.454Z,97084.25
2023-02-21T12:06:41.834Z,97086.53
2023-02-21T12:09:44.117Z,97068.75
2023-02-21T12:12:29.210Z,97080.69
2023-02-21T12:15:11.961Z,97072.66
2023-02-21T12:18:20.511Z,97063.94
2023-02-21T12:21:11.184Z,97063.78
2023-02-21T12:24:05.140Z,97062.34
2023-02-21T12:26:51.529Z,97030.34
2023-02-21T12:29:42.446Z,97057.19
2023-02-21T12:32:22.190Z,97048.06
2023-02-21T12:35:11.942Z,97045.41
2023-02-21T12:38:04.223Z,97033.13
2023-02-21T12:40:49.179Z,97028.09
2023-02-21T12:43:24.689Z,97033.06
2023-02-21T12:46:13.265Z,97025.34
2023-02-21T12:48:51.166Z,97008.31
2023-02-21T12:51:21.954Z,97016.38
2023-02-21T12:53:57.554Z,97015.56
2023-02-21T12:56:31.080Z,97001.56
2023-02-21T12:59:08.125Z,96981.94
2023-02-21T13:01:38.323Z,96993.59
2023-02-21T13:04:22.427Z,96991.38
2023-02-21T13:06:58.642Z,96974.97
2023-02-21T13:09:37.021Z,96966.09
2023-02-21T13:12:09.432Z,96972.81
2023-02-21T13:14:47.904Z,96969.88
2023-02-21T13:17:17.125Z,96949.41
2023-02-21T13:19:55.588Z,96955.78
2023-02-21T13:23:18.374Z,96954.97
2023-02-21T13:25:53.084Z,96949.63
2023-02-21T13:28:25.507Z,96935.81
2023-02-21T13:31:03.733Z,96931.38
2023-02-21T13:33:50.353Z,96935.31
2023-02-21T13:36:41.688Z,96933.03
2023-02-21T13:39:31.880Z,96925.59
2023-02-21T13:42:20.441Z,96907.78
2023-02-21T13:45:11.572Z,96917.75
2023-02-21T13:48:01.298Z,96918.22
2023-02-21T13:50:35.171Z,96908.25
2023-02-21T13:53:16.441Z,96903.06
2023-02-21T13:56:08.008Z,96901.91
2023-02-21T13:58:40.580Z,96897.50
2023-02-21T14:01:22.517Z,96891.81
2023-02-21T14:03:51.231Z,96890.91
2023-02-21T14:06:35.663Z,96879.25
2023-02-21T14:09:11.696Z,96877.84
2023-02-21T14:11:47.041Z,96851.84
2023-02-21T14:14:25.063Z,96885.69
2023-02-21T14:17:04.829Z,96875.91
2023-02-21T14:19:43.857Z,96873.06
2023-02-21T14:22:14.546Z,96872.47
2023-02-21T14:24:48.491Z,96857.13
2023-02-21T14:27:15.054Z,96864.19
2023-02-21T14:29:43.098Z,96860.75
2023-02-21T14:32:09.680Z,96817.53
2023-02-21T14:34:38.567Z,96851.34
2023-02-21T14:37:28.203Z,96852.34
2023-02-21T14:40:14.908Z,96857.81
2023-02-21T14:42:44.111Z,96855.41
2023-02-21T14:45:10.630Z,96861.25
2023-02-21T14:47:46.655Z,96850.94
2023-02-21T14:50:25.510Z,96848.16
2023-02-21T14:53:13.650Z,96851.09
2023-02-21T14:56:08.003Z,96839.09
2023-02-21T14:58:52.247Z,96844.38
2023-02-21T15:01:43.656Z,96833.84
2023-02-21T15:04:28.495Z,96834.13
2023-02-21T15:07:16.191Z,96836.69
2023-02-21T15:09:42.714Z,96831.84
2023-02-21T15:12:17.272Z,96824.75
2023-02-21T15:14:51.264Z,96835.19
2023-02-21T15:17:21.472Z,96831.84
2023-02-21T15:20:00.816Z,96824.31
2023-02-21T15:22:27.947Z,96822.13
2023-02-21T15:25:11.764Z,96822.78
2023-02-21T15:27:53.419Z,96817.50
2023-02-21T15:30:24.634Z,96823.75
2023-02-21T15:32:57.020Z,96818.09
2023-02-21T15:35:30.025Z,96813.09
2023-02-21T15:37:59.425Z,96813.91
2023-02-21T15:40:27.703Z,96797.78
2023-02-21T15:42:55.383Z,96814.44
2023-02-21T15:45:30.203Z,96813.25
2023-02-21T15:47:58.545Z,96807.69
2023-02-21T15:50:43.873Z,96823.38
2023-02-21T15:53:30.734Z,96812.94
2023-02-21T15:56:17.113Z,96814.53
2023-02-21T15:59:07.805Z,96802.22
2023-02-21T16:01:34.491Z,96799.41
2023-02-21T16:04:19.301Z,96809.00
2023-02-21T16:06:52.266Z,96809.38
2023-02-21T16:09:31.206Z,96806.72
2023-02-21T16:12:18.466Z,96799.97
2023-02-21T16:14:46.401Z,96818.59
2023-02-21T16:17:12.881Z,96816.81
2023-02-21T16:19:48.011Z,96814.44
2023-02-21T16:22:59.728Z,96812.13
2023-02-21T16:25:25.760Z,96810.88
2023-02-21T16:27:56.174Z,96813.13
2023-02-21T16:30:25.779Z,96813.63
2023-02-21T16:32:54.669Z,96805.16
2023-02-21T16:35:23.960Z,96800.94
2023-02-21T16:37:53.350Z,96813.75
2023-02-21T16:40:24.882Z,96805.09
2023-02-21T16:42:52.714Z,96792.16
2023-02-21T16:45:20.149Z,96812.41
2023-02-21T16:47:49.861Z,96815.34
2023-02-21T16:50:29.299Z,96800.78
2023-02-21T16:52:55.767Z,96807.16
2023-02-21T16:55:22.656Z,96812.72
2023-02-21T16:57:52.852Z,96815.78
2023-02-21T17:00:22.049Z,96808.88
2023-02-21T17:02:50.100Z,96810.69
2023-02-21T17:05:17.843Z,96803.84
2023-02-21T17:07:44.539Z,96801.91
2023-02-21T17:10:11.965Z,96822.16
2023-02-21T17:12:38.490Z,96823.50
2023-02-21T17:15:05.479Z,96822.78
2023-02-21T17:17:32.017Z,96813.16
2023-02-21T17:19:58.490Z,96831.28
2023-02-21T17:22:25.017Z,96825.34
2023-02-21T17:24:51.435Z,96827.41
2023-02-21T17:27:17.990Z,96825.78
2023-02-21T17:29:44.499Z,96826.31
2023-02-21T17:32:10.998Z,96819.56
2023-02-21T17:34:37.627Z,96834.69
2023-02-21T17:37:04.752Z,96804.53
2023-02-21T17:39:31.545Z,96839.84
2023-02-21T17:41:58.077Z,96830.06
2023-02-21T17:44:26.458Z,96832.94
2023-02-21T17:46:56.215Z,96830.72
2023-02-21T17:49:25.709Z,96836.06
2023-02-21T17:51:53.197Z,96819.16
2023-02-21T17:54:24.181Z,96831.66
2023-02-21T17:56:51.316Z,96831.31
2023-02-21T17:59:19.115Z,96831.28
2023-02-21T18:01:46.785Z,96833.88
2023-02-21T18:04:14.292Z,96817.06
2023-02-21T18:06:42.013Z,96786.53
2023-02-21T18:09:08.554Z,96815.13
2023-02-21T18:11:37.908Z,96834.75
2023-02-21T18:14:05.080Z,96836.97
2023-02-21T18:16:31.653Z,96838.53
2023-02-21T18:18:58.181Z,96820.16
2023-02-21T18:21:24.980Z,96833.97
2023-02-21T18:23:52.049Z,96825.06
2023-02-21T18:26:18.858Z,96837.41
2023-02-21T18:28:45.405Z,96815.16
2023-02-21T18:31:15.167Z,96841.59
2023-02-21T18:33:41.894Z,96834.09
2023-02-21T18:36:09.138Z,96843.50
2023-02-21T18:38:35.754Z,96842.53
2023-02-21T18:41:03.618Z,96821.78
2023-02-21T18:43:30.585Z,96834.81
2023-02-21T18:45:58.620Z,96820.47
2023-02-21T18:48:26.602Z,96837.91
2023-02-21T18:50:53.573Z,96833.91
2023-02-21T18:53:20.808Z,96834.50
2023-02-21T18:55:47.361Z,96834.50
2023-02-21T18:58:14.037Z,96820.16
2023-02-21T19:00:40.901Z,96843.16
2023-02-21T19:03:08.843Z,96848.19
2023-02-21T19:05:35.406Z,96819.59
2023-02-21T19:08:03.370Z,96844.41
2023-02-21T19:10:30.935Z,96846.03
2023-02-21T19:13:02.161Z,96838.25
2023-02-21T19:15:31.657Z,96807.44
2023-02-21T19:17:58.874Z,96826.84
2023-02-21T19:20:25.653Z,96803.66
2023-02-21T19:22:54.254Z,96808.47
2023-02-21T19:25:25.082Z,96787.88
2023-02-21T19:27:51.530Z,96790.47
2023-02-21T19:30:20.018Z,96822.91
2023-02-21T19:32:46.482Z,96812.13
2023-02-21T19:35:13.257Z,96836.94
2023-02-21T19:37:39.683Z,96797.53
2023-02-21T19:40:07.945Z,96834.94
2023-02-21T19:42:35.468Z,96816.94
2023-02-21T19:45:02.797Z,96838.78
2023-02-21T19:47:29.735Z,96837.38
2023-02-21T19:49:56.334Z,96834.22
2023-02-21T19:52:22.873Z,96805.41
2023-02-21T19:54:49.273Z,96847.03
2023-02-21T19:57:15.921Z,96809.00
2023-02-21T19:59:42.421Z,96839.03
2023-02-21T20:02:10.448Z,96851.06
2023-02-21T20:04:37.061Z,96839.25
2023-02-21T20:07:04.935Z,96849.88
2023-02-21T20:09:31.416Z,96841.06
2023-02-21T20:11:58.477Z,96850.66
2023-02-21T20:14:24.964Z,96848.66
2023-02-21T20:16:53.662Z,96851.25
2023-02-21T20:19:20.883Z,96848.47
2023-02-21T20:21:47.335Z,96841.44
2023-02-21T20:24:13.862Z,96854.88
2023-02-21T20:26:40.390Z,96837.88
2023-02-21T20:29:07.121Z,96808.03
2023-02-21T20:31:37.164Z,96853.69
2023-02-21T20:34:05.442Z,96848.47
2023-02-21T20:36:36.376Z,96850.66
2023-02-21T20:39:04.354Z,96851.44
2023-02-21T20:41:34.120Z,96825.84
2023-02-21T20:44:00.996Z,96838.25
2023-02-21T20:46:28.837Z,96851.25
2023-02-21T20:48:58.623Z,96848.44
2023-02-21T20:51:33.273Z,96834.22
2023-02-21T20:54:01.047Z,96832.41
2023-02-21T20:56:41.886Z,96844.63
2023-02-21T20:59:15.746Z,96853.41
2023-02-21T21:01:48.131Z,96849.44
2023-02-21T21:04:20.201Z,96841.81
2023-02-21T21:06:47.390Z,96853.22
2023-02-21T21:09:17.723Z,96845.00
2023-02-21T21:11:45.055Z,96852.19
2023-02-21T21:14:13.908Z,96824.53
2023-02-21T21:16:42.348Z,96837.94
2023-02-21T21:19:08.919Z,96819.31
2023-02-21T21:21:37.850Z,96830.53
2023-02-21T21:24:07.139Z,96837.13
2023-02-21T21:26:34.039Z,96845.75
2023-02-21T21:29:01.384Z,96844.09
2023-02-21T21:31:27.937Z,96837.94
2023-02-21T21:33:56.300Z,96824.50
2023-02-21T21:36:22.935Z,96818.69
2023-02-21T21:38:49.357Z,96823.28
2023-02-21T21:41:16.084Z,96844.66
2023-02-21T21:43:43.948Z,96840.91
2023-02-21T21:46:11.673Z,96816.84
2023-02-21T21:48:41.819Z,96838.28
2023-02-21T21:51:09.471Z,96773.13
2023-02-21T21:53:39.935Z,96831.03
2023-02-21T21:56:11.293Z,96801.41
2023-02-21T21:58:37.934Z,96821.81
2023-02-21T22:01:07.513Z,96795.31
2023-02-21T22:03:35.631Z,96820.97
2023-02-21T22:06:02.576Z,96809.09
2023-02-21T22:08:29.340Z,96804.13
2023-02-21T22:10:56.129Z,96811.53
2023-02-21T22:13:22.612Z,96820.72
2023-02-21T22:15:49.913Z,96829.97
2023-02-21T22:18:18.388Z,96834.53
2023-02-21T22:20:49.395Z,96805.25
2023-02-21T22:23:17.312Z,96805.84
2023-02-21T22:25:43.964Z,96812.47
2023-02-21T22:28:13.308Z,96816.66
2023-02-21T22:30:40.759Z,96820.91
2023-02-21T22:33:13.293Z,96761.19
2023-02-21T22:35:40.922Z,96802.25
2023-02-21T22:38:14.092Z,96783.63
2023-02-21T22:40:42.047Z,96811.88
2023-02-21T22:43:08.988Z,96811.06
2023-02-21T22:45:36.800Z,96806.81
2023-02-21T22:48:06.976Z,96802.88
2023-02-21T22:50:36.938Z,96801.63
2023-02-21T22:53:08.109Z,96799.03
2023-02-21T22:55:37.034Z,96787.41
2023-02-21T22:58:08.212Z,96776.00
2023-02-21T23:17:31.024Z,96796.63
2023-02-21T23:19:57.558Z,96778.47
2023-02-21T23:22:25.131Z,96795.75
2023-02-21T23:24:51.651Z,96791.75
2023-02-21T23:27:18.187Z,96787.59
2023-02-21T23:29:45.357Z,96794.72
2023-02-21T23:32:12.688Z,96791.16
2023-02-21T23:34:42.077Z,96801.34
2023-02-21T23:37:11.988Z,96798.38
2023-02-21T23:39:40.883Z,96802.56
2023-02-21T23:42:07.501Z,96795.38
2023-02-21T23:44:36.137Z,96784.31
2023-02-21T23:47:05.884Z,96801.34
2023-02-21T23:49:32.411Z,96800.94
2023-02-21T23:52:01.251Z,96782.66
2023-02-21T23:54:27.769Z,96777.84
2023-02-21T23:56:54.294Z,96790.69
2023-02-21T23:59:20.948Z,96789.09
